createdAt,value
2022-09-22T00:02:00.473Z,0.75
2022-09-22T00:04:06.054Z,0.28
2022-09-22T00:06:11.996Z,1.02
2022-09-22T00:08:13.457Z,0.65
2022-09-22T00:10:15.303Z,0.08
2022-09-22T00:12:16.722Z,0.00
2022-09-22T00:14:22.849Z,0.10
2022-09-22T00:16:25.790Z,0.35
2022-09-22T00:18:27.950Z,0.00
2022-09-22T00:20:29.343Z,0.00
2022-09-22T00:22:30.997Z,0.10
2022-09-22T00:24:32.632Z,0.03
2022-09-22T00:26:35.707Z,0.05
2022-09-22T00:28:41.182Z,0.20
2022-09-22T00:30:43.082Z,0.40
2022-09-22T00:32:44.463Z,0.98
2022-09-22T00:34:45.973Z,0.63
2022-09-22T00:36:47.782Z,0.10
2022-09-22T00:38:52.123Z,0.45
2022-09-22T00:40:53.846Z,0.00
2022-09-22T00:43:11.253Z,0.63
2022-09-22T00:45:12.696Z,0.70
2022-09-22T00:47:14.273Z,0.90
2022-09-22T00:49:15.812Z,0.30
2022-09-22T00:51:20.189Z,0.50
2022-09-22T00:53:22.709Z,0.00
2022-09-22T00:55:29.919Z,0.10
2022-09-22T00:57:32.952Z,0.00
2022-09-22T00:59:35.155Z,0.88
2022-09-22T01:01:36.949Z,0.93
2022-09-22T01:03:40.178Z,0.93
2022-09-22T01:05:42.595Z,1.55
2022-09-22T01:07:44.555Z,0.22
2022-09-22T01:09:46.049Z,0.20
2022-09-22T01:11:47.492Z,0.10
2022-09-22T01:13:54.355Z,1.58
2022-09-22T01:15:55.784Z,1.02
2022-09-22T01:18:13.138Z,1.05
2022-09-22T01:20:17.332Z,1.20
2022-09-22T01:22:22.006Z,0.82
2022-09-22T01:24:34.452Z,1.95
2022-09-22T01:26:44.934Z,0.10
2022-09-22T01:28:54.807Z,0.85
2022-09-22T01:30:56.264Z,0.82
2022-09-22T01:33:16.359Z,0.95
2022-09-22T01:35:27.225Z,0.10
2022-09-22T01:37:32.844Z,0.20
2022-09-22T01:39:43.579Z,0.20
2022-09-22T01:41:59.129Z,0.45
2022-09-22T01:44:03.092Z,0.00
2022-09-22T01:46:11.379Z,0.38
2022-09-22T01:48:15.611Z,0.80
2022-09-22T01:50:25.335Z,1.77
2022-09-22T01:52:31.470Z,0.65
2022-09-22T01:54:36.373Z,0.20
2022-09-22T01:56:38.951Z,0.45
2022-09-22T01:58:43.094Z,0.13
2022-09-22T02:00:48.476Z,0.52
2022-09-22T02:02:50.286Z,0.95
2022-09-22T02:04:58.129Z,0.90
2022-09-22T02:07:05.325Z,0.47
2022-09-22T02:09:09.298Z,0.00
2022-09-22T02:11:12.503Z,0.25
2022-09-22T02:13:14.509Z,0.55
2022-09-22T02:15:34.874Z,0.63
2022-09-22T02:17:36.427Z,0.40
2022-09-22T02:19:38.104Z,0.85
2022-09-22T02:21:40.242Z,0.50
2022-09-22T02:23:42.043Z,1.60
2022-09-22T02:25:44.579Z,0.63
2022-09-22T02:27:47.599Z,0.20
2022-09-22T02:29:55.820Z,0.30
2022-09-22T02:31:58.350Z,0.30
2022-09-22T02:34:00.337Z,1.25
2022-09-22T02:36:20.419Z,1.17
2022-09-22T02:38:25.411Z,0.57
2022-09-22T02:40:47.211Z,0.00
2022-09-22T02:42:58.340Z,0.08
2022-09-22T02:45:09.056Z,1.02
2022-09-22T02:47:14.039Z,0.47
2022-09-22T02:49:17.282Z,0.50
2022-09-22T02:51:18.949Z,0.75
2022-09-22T02:53:20.422Z,0.40
2022-09-22T02:55:21.828Z,0.30
2022-09-22T02:57:23.260Z,0.30
2022-09-22T02:59:24.660Z,1.25
2022-09-22T03:01:26.451Z,0.00
2022-09-22T03:03:27.987Z,1.20
2022-09-22T03:05:29.391Z,0.13
2022-09-22T03:07:31.447Z,1.23
2022-09-22T03:09:33.630Z,0.35
2022-09-22T03:11:35.058Z,0.30
2022-09-22T03:13:36.499Z,0.25
2022-09-22T03:15:37.978Z,1.00
2022-09-22T03:17:39.806Z,0.00
2022-09-22T03:19:41.184Z,0.47
2022-09-22T03:21:42.593Z,1.27
2022-09-22T03:23:44.022Z,0.10
2022-09-22T03:25:45.481Z,0.28
2022-09-22T03:27:47.862Z,1.15
2022-09-22T03:29:49.277Z,0.63
2022-09-22T03:31:50.683Z,0.17
2022-09-22T03:33:52.924Z,1.45
2022-09-22T03:35:54.549Z,0.20
2022-09-22T03:37:55.967Z,0.32
2022-09-22T03:39:57.384Z,0.22
2022-09-22T03:41:58.825Z,1.50
2022-09-22T03:44:00.341Z,0.30
2022-09-22T03:46:02.662Z,0.20
2022-09-22T03:48:04.207Z,0.82
2022-09-22T03:50:05.878Z,0.82
2022-09-22T03:52:07.832Z,0.22
2022-09-22T03:54:09.227Z,0.45
2022-09-22T03:56:12.105Z,0.10
2022-09-22T03:58:13.536Z,0.00
2022-09-22T04:00:15.143Z,0.90
2022-09-22T04:02:17.007Z,0.32
2022-09-22T04:04:18.461Z,0.63
2022-09-22T04:06:20.383Z,0.82
2022-09-22T04:08:21.830Z,0.38
2022-09-22T04:10:23.572Z,0.28
2022-09-22T04:12:24.998Z,0.22
2022-09-22T04:14:26.471Z,0.40
2022-09-22T04:16:29.893Z,0.22
2022-09-22T04:18:31.791Z,1.35
2022-09-22T04:20:33.166Z,0.82
2022-09-22T04:22:34.652Z,0.08
2022-09-22T04:24:36.083Z,0.10
2022-09-22T04:26:51.617Z,0.40
2022-09-22T04:29:01.793Z,0.10
2022-09-22T04:31:03.232Z,0.00
2022-09-22T04:33:04.765Z,0.52
2022-09-22T04:35:07.003Z,0.10
2022-09-22T04:37:08.593Z,0.10
2022-09-22T04:39:10.080Z,0.90
2022-09-22T04:41:11.492Z,0.00
2022-09-22T04:43:13.028Z,0.20
2022-09-22T04:45:15.112Z,0.10
2022-09-22T04:47:16.544Z,0.00
2022-09-22T04:49:18.502Z,1.10
2022-09-22T04:51:19.911Z,1.08
2022-09-22T04:53:21.318Z,0.00
2022-09-22T04:55:23.888Z,0.70
2022-09-22T04:57:25.327Z,0.00
2022-09-22T04:59:26.901Z,0.10
2022-09-22T05:01:28.461Z,0.40
2022-09-22T05:03:30.140Z,0.20
2022-09-22T05:05:31.660Z,0.00
2022-09-22T05:07:33.292Z,0.00
2022-09-22T05:09:34.733Z,0.85
2022-09-22T05:11:36.237Z,0.15
2022-09-22T05:13:40.654Z,0.22
2022-09-22T05:15:42.115Z,0.65
2022-09-22T05:17:47.658Z,1.25
2022-09-22T05:19:49.025Z,0.95
2022-09-22T05:21:50.932Z,0.55
2022-09-22T05:23:52.359Z,0.00
2022-09-22T05:25:53.879Z,0.10
2022-09-22T05:27:55.785Z,0.13
2022-09-22T05:29:57.158Z,0.90
2022-09-22T05:31:58.713Z,0.10
2022-09-22T05:34:00.156Z,0.10
2022-09-22T05:36:01.692Z,0.10
2022-09-22T05:38:03.887Z,0.32
2022-09-22T05:40:07.244Z,2.38
2022-09-22T05:42:10.995Z,0.40
2022-09-22T05:44:12.698Z,0.85
2022-09-22T05:46:14.132Z,0.32
2022-09-22T05:48:15.592Z,0.00
2022-09-22T05:50:18.071Z,0.00
2022-09-22T05:52:19.462Z,0.25
2022-09-22T05:54:23.350Z,1.08
2022-09-22T05:56:24.980Z,0.28
2022-09-22T05:58:26.432Z,0.35
2022-09-22T06:00:28.251Z,0.75
2022-09-22T06:02:29.665Z,0.50
2022-09-22T06:04:31.069Z,0.90
2022-09-22T06:06:32.861Z,0.68
2022-09-22T06:08:34.346Z,0.20
2022-09-22T06:10:37.413Z,0.47
2022-09-22T06:12:39.359Z,1.63
2022-09-22T06:14:40.830Z,0.15
2022-09-22T06:16:43.303Z,0.00
2022-09-22T06:18:47.998Z,3.08
2022-09-22T06:20:49.632Z,1.65
2022-09-22T06:22:51.046Z,1.08
2022-09-22T06:24:52.645Z,0.43
2022-09-22T06:26:54.118Z,1.48
2022-09-22T06:28:55.540Z,0.93
2022-09-22T06:30:58.557Z,0.10
2022-09-22T06:33:00.060Z,0.00
2022-09-22T06:35:02.715Z,0.75
2022-09-22T06:37:07.551Z,0.47
2022-09-22T06:39:10.647Z,1.58
2022-09-22T06:41:12.031Z,1.75
2022-09-22T06:43:20.835Z,0.20
2022-09-22T06:45:22.359Z,0.30
2022-09-22T06:47:24.008Z,0.20
2022-09-22T06:49:26.303Z,1.95
2022-09-22T06:51:28.825Z,1.23
2022-09-22T06:53:30.255Z,0.10
2022-09-22T06:55:31.701Z,2.50
2022-09-22T06:57:34.099Z,0.32
2022-09-22T06:59:37.870Z,0.35
2022-09-22T07:01:40.064Z,0.05
2022-09-22T07:03:41.760Z,0.00
2022-09-22T07:05:51.567Z,0.60
2022-09-22T07:09:54.895Z,0.65
2022-09-22T07:11:56.415Z,0.90
2022-09-22T07:13:58.691Z,5.78
2022-09-22T07:16:04.559Z,0.00
2022-09-22T07:18:06.201Z,0.57
2022-09-22T07:20:08.235Z,2.17
2022-09-22T07:22:10.145Z,3.75
2022-09-22T07:24:11.567Z,6.85
2022-09-22T07:26:14.148Z,10.25
2022-09-22T07:28:15.710Z,0.20
2022-09-22T07:30:17.137Z,0.40
2022-09-22T07:32:18.549Z,0.45
2022-09-22T07:34:19.952Z,0.30
2022-09-22T07:36:22.385Z,1.35
2022-09-22T07:38:26.446Z,2.15
2022-09-22T07:40:27.947Z,1.02
2022-09-22T07:42:29.354Z,1.25
2022-09-22T07:44:49.613Z,0.90
2022-09-22T07:46:51.103Z,0.10
2022-09-22T07:48:52.567Z,0.10
2022-09-22T07:50:54.904Z,0.55
2022-09-22T07:52:56.365Z,0.60
2022-09-22T07:54:57.737Z,0.73
2022-09-22T07:56:59.308Z,0.30
2022-09-22T07:59:05.249Z,1.23
2022-09-22T08:01:07.802Z,0.15
2022-09-22T08:03:09.356Z,0.32
2022-09-22T08:05:11.106Z,0.30
2022-09-22T08:07:15.125Z,0.05
2022-09-22T08:09:18.382Z,16.67
2022-09-22T08:11:21.277Z,12.57
2022-09-22T08:13:23.382Z,12.25
2022-09-22T08:15:27.318Z,14.07
2022-09-22T08:17:29.021Z,13.45
2022-09-22T08:19:30.487Z,11.40
2022-09-22T08:21:35.556Z,12.43
2022-09-22T08:23:37.738Z,21.23
2022-09-22T08:25:40.431Z,17.10
2022-09-22T08:27:41.826Z,13.02
2022-09-22T08:29:43.889Z,11.77
2022-09-22T08:31:47.028Z,13.27
2022-09-22T08:33:49.380Z,14.88
2022-09-22T08:35:52.097Z,19.02
2022-09-22T08:37:53.497Z,20.35
2022-09-22T08:39:54.961Z,20.13
2022-09-22T08:42:05.943Z,16.48
2022-09-22T08:44:07.398Z,18.70
2022-09-22T08:46:08.979Z,40.13
2022-09-22T08:48:36.940Z,24.27
2022-09-22T08:51:10.202Z,21.20
2022-09-22T08:53:13.947Z,23.98
2022-09-22T08:55:22.479Z,20.15
2022-09-22T08:57:24.185Z,15.93
2022-09-22T08:59:30.635Z,9.38
2022-09-22T09:01:32.288Z,11.27
2022-09-22T09:03:39.727Z,10.02
2022-09-22T09:05:41.113Z,11.77
2022-09-22T09:07:45.862Z,10.48
2022-09-22T09:10:07.485Z,8.60
2022-09-22T09:12:08.863Z,8.20
2022-09-22T09:14:30.452Z,10.60
2022-09-22T09:16:50.059Z,11.07
2022-09-22T09:18:55.072Z,12.15
2022-09-22T09:20:56.585Z,10.77
2022-09-22T09:22:58.525Z,8.30
2022-09-22T09:27:28.204Z,9.05
2022-09-22T09:29:34.187Z,7.85
2022-09-22T09:31:43.334Z,7.45
2022-09-22T09:33:50.768Z,7.47
2022-09-22T09:35:53.721Z,7.03
2022-09-22T09:37:58.903Z,12.90
2022-09-22T09:40:01.800Z,9.73
2022-09-22T09:42:13.746Z,8.45
2022-09-22T09:44:22.365Z,6.70
2022-09-22T09:46:42.473Z,8.38
2022-09-22T09:49:02.796Z,8.65
2022-09-22T09:51:05.307Z,7.18
2022-09-22T09:53:09.727Z,6.63
2022-09-22T09:55:27.216Z,6.20
2022-09-22T09:57:30.084Z,6.18
2022-09-22T09:59:50.677Z,6.15
2022-09-22T10:01:54.265Z,6.05
2022-09-22T10:03:57.062Z,5.47
2022-09-22T10:06:04.565Z,5.70
2022-09-22T10:08:23.698Z,5.53
2022-09-22T10:10:38.054Z,7.07
2022-09-22T10:12:39.483Z,5.63
2022-09-22T10:14:48.661Z,4.90
2022-09-22T10:16:53.179Z,4.60
2022-09-22T10:19:03.394Z,4.53
2022-09-22T10:21:07.262Z,4.38
2022-09-22T10:23:35.028Z,6.53
2022-09-22T10:25:36.479Z,5.20
2022-09-22T10:27:38.181Z,5.60
2022-09-22T10:29:42.175Z,5.43
2022-09-22T10:32:04.220Z,5.82
2022-09-22T10:34:06.775Z,4.72
2022-09-22T10:36:12.369Z,4.85
2022-09-22T10:38:15.931Z,5.05
2022-09-22T10:40:18.262Z,4.90
2022-09-22T10:42:25.899Z,4.63
2022-09-22T10:44:38.664Z,5.65
2022-09-22T10:46:57.886Z,5.70
2022-09-22T10:49:05.523Z,4.53
2022-09-22T10:51:26.226Z,4.97
2022-09-22T10:53:46.855Z,5.20
2022-09-22T10:56:06.485Z,3.83
2022-09-22T10:58:08.393Z,3.08
2022-09-22T11:00:10.930Z,3.55
2022-09-22T11:02:32.271Z,3.67
2022-09-22T11:04:52.220Z,4.05
2022-09-22T11:09:36.435Z,5.93
2022-09-22T11:11:59.439Z,4.50
2022-09-22T11:14:04.134Z,4.50
2022-09-22T11:16:18.752Z,4.57
2022-09-22T11:18:20.213Z,5.15
2022-09-22T11:20:28.705Z,4.47
2022-09-22T11:22:48.832Z,4.88
2022-09-22T11:24:56.283Z,5.70
2022-09-22T11:27:01.327Z,5.40
2022-09-22T11:29:21.009Z,4.70
2022-09-22T11:31:31.018Z,4.90
2022-09-22T11:33:41.489Z,5.80
2022-09-22T11:36:00.361Z,5.30
2022-09-22T11:38:23.331Z,6.15
2022-09-22T11:40:25.321Z,6.50
2022-09-22T11:42:47.760Z,7.65
2022-09-22T11:45:05.189Z,5.10
2022-09-22T11:47:18.541Z,5.00
2022-09-22T11:49:38.863Z,5.68
2022-09-22T11:51:46.361Z,4.60
2022-09-22T11:53:56.964Z,5.18
2022-09-22T11:56:17.094Z,7.68
2022-09-22T11:58:20.651Z,5.80
2022-09-22T12:00:22.251Z,3.85
2022-09-22T12:02:26.711Z,3.83
2022-09-22T12:04:40.243Z,4.00
2022-09-22T12:06:43.285Z,3.90
2022-09-22T12:08:56.048Z,3.20
2022-09-22T12:10:58.313Z,3.67
2022-09-22T12:13:00.174Z,3.15
2022-09-22T12:15:09.656Z,2.97
2022-09-22T12:17:22.948Z,2.88
2022-09-22T12:19:37.487Z,3.15
2022-09-22T12:21:45.480Z,2.60
2022-09-22T12:23:51.333Z,3.90
2022-09-22T12:25:54.566Z,4.07
2022-09-22T12:27:56.534Z,3.10
2022-09-22T12:30:11.377Z,3.00
2022-09-22T12:32:26.199Z,3.38
2022-09-22T12:34:43.633Z,3.65
2022-09-22T12:36:45.931Z,2.50
2022-09-22T12:38:47.434Z,2.75
2022-09-22T12:40:49.705Z,2.45
2022-09-22T12:42:52.643Z,2.75
2022-09-22T12:44:58.896Z,3.40
2022-09-22T12:47:15.003Z,3.70
2022-09-22T12:49:21.333Z,3.20
2022-09-22T12:51:25.933Z,2.63
2022-09-22T12:53:28.417Z,7.82
2022-09-22T12:55:40.820Z,3.75
2022-09-22T12:57:44.405Z,15.18
2022-09-22T12:59:57.161Z,10.73
2022-09-22T13:02:17.534Z,22.52
2022-09-22T13:04:19.039Z,11.48
2022-09-22T13:06:23.425Z,20.15
2022-09-22T13:08:31.104Z,9.73
2022-09-22T13:10:32.487Z,5.60
2022-09-22T13:12:33.956Z,6.07
2022-09-22T13:14:54.317Z,14.07
2022-09-22T13:16:56.035Z,4.93
2022-09-22T13:18:58.903Z,4.15
2022-09-22T13:21:21.160Z,3.67
2022-09-22T13:23:23.144Z,4.30
2022-09-22T13:25:26.308Z,3.97
2022-09-22T13:27:27.721Z,2.70
2022-09-22T13:29:29.095Z,3.25
2022-09-22T13:31:37.650Z,3.50
2022-09-22T13:33:39.427Z,2.63
2022-09-22T13:35:45.973Z,2.83
2022-09-22T13:37:48.270Z,2.22
2022-09-22T13:39:51.345Z,2.60
2022-09-22T13:41:55.002Z,3.30
2022-09-22T13:43:58.472Z,3.20
2022-09-22T13:46:00.625Z,2.90
2022-09-22T13:48:08.698Z,4.50
2022-09-22T13:50:14.639Z,4.03
2022-09-22T13:52:19.564Z,5.97
2022-09-22T13:54:22.850Z,3.47
2022-09-22T13:56:25.811Z,3.53
2022-09-22T13:58:40.733Z,2.50
2022-09-22T14:01:11.414Z,2.28
2022-09-22T14:03:16.294Z,3.85
2022-09-22T14:05:19.181Z,17.42
2022-09-22T14:07:22.222Z,3.80
2022-09-22T14:09:24.910Z,3.33
2022-09-22T14:11:33.118Z,6.15
2022-09-22T14:13:41.734Z,3.42
2022-09-22T14:15:43.935Z,3.72
2022-09-22T14:17:45.449Z,3.63
2022-09-22T14:19:55.827Z,3.15
2022-09-22T14:22:01.087Z,2.20
2022-09-22T14:24:02.493Z,3.35
2022-09-22T14:26:18.717Z,3.50
2022-09-22T14:28:22.174Z,3.00
2022-09-22T14:30:31.268Z,7.22
2022-09-22T14:32:32.665Z,9.93
2022-09-22T14:34:34.395Z,8.65
2022-09-22T14:36:39.422Z,13.32
2022-09-22T14:38:48.231Z,5.70
2022-09-22T14:40:58.822Z,6.05
2022-09-22T14:43:08.940Z,5.05
2022-09-22T14:45:10.319Z,7.85
2022-09-22T14:47:18.961Z,9.52
2022-09-22T14:49:37.237Z,8.85
2022-09-22T14:51:38.655Z,4.38
2022-09-22T14:54:01.606Z,4.10
2022-09-22T14:56:07.387Z,4.35
2022-09-22T14:58:14.809Z,9.73
2022-09-22T15:00:35.766Z,8.02
2022-09-22T15:02:40.372Z,47.47
2022-09-22T15:04:45.187Z,26.45
2022-09-22T15:06:46.866Z,27.42
2022-09-22T15:08:51.221Z,6.63
2022-09-22T15:10:54.215Z,31.85
2022-09-22T15:12:56.599Z,393.75
2022-09-22T15:15:01.294Z,53.65
2022-09-22T15:17:22.051Z,7.10
2022-09-22T15:19:24.340Z,5.78
2022-09-22T15:21:29.287Z,7.53
2022-09-22T15:23:41.843Z,3.95
2022-09-22T15:25:43.844Z,4.25
2022-09-22T15:27:45.511Z,5.28
2022-09-22T15:29:48.041Z,3.28
2022-09-22T15:31:49.719Z,7.40
2022-09-22T15:33:51.129Z,12.13
2022-09-22T15:35:53.953Z,7.05
2022-09-22T15:37:55.668Z,9.32
2022-09-22T15:39:58.634Z,12.07
2022-09-22T15:42:00.307Z,22.25
2022-09-22T15:44:02.226Z,18.92
2022-09-22T15:46:05.324Z,2.90
2022-09-22T15:48:09.161Z,6.68
2022-09-22T15:50:16.231Z,5.72
2022-09-22T15:52:17.634Z,14.07
2022-09-22T15:54:20.454Z,15.57
2022-09-22T15:56:23.434Z,9.57
2022-09-22T15:58:24.982Z,4.75
2022-09-22T16:00:27.653Z,5.10
2022-09-22T16:02:32.188Z,5.60
2022-09-22T16:04:34.307Z,22.20
2022-09-22T16:06:35.909Z,8.00
2022-09-22T16:08:42.312Z,29.27
2022-09-22T16:10:44.956Z,25.88
2022-09-22T16:12:47.683Z,13.20
2022-09-22T16:14:49.994Z,12.10
2022-09-22T16:16:52.483Z,13.32
2022-09-22T16:18:54.044Z,36.53
2022-09-22T16:21:16.257Z,42.88
2022-09-22T16:23:18.581Z,28.80
2022-09-22T16:25:20.578Z,29.55
2022-09-22T16:27:21.975Z,45.72
2022-09-22T16:29:24.413Z,66.78
2022-09-22T16:31:27.633Z,52.55
2022-09-22T16:33:29.096Z,57.20
2022-09-22T16:35:30.910Z,53.00
2022-09-22T16:37:32.348Z,40.72
2022-09-22T16:39:33.772Z,80.85
2022-09-22T16:41:36.089Z,107.63
2022-09-22T16:43:37.513Z,94.88
2022-09-22T16:45:57.704Z,108.57
2022-09-22T16:47:59.183Z,116.18
2022-09-22T16:50:00.955Z,115.57
2022-09-22T16:52:02.446Z,110.75
2022-09-22T16:54:05.639Z,95.28
2022-09-22T16:56:07.105Z,117.70
2022-09-22T16:58:10.717Z,64.82
2022-09-22T17:00:12.435Z,26.52
2022-09-22T17:02:13.958Z,37.35
2022-09-22T17:04:16.550Z,34.35
2022-09-22T17:06:19.253Z,53.45
2022-09-22T17:08:25.565Z,46.53
2022-09-22T17:10:27.303Z,64.40
2022-09-22T17:12:29.338Z,79.30
2022-09-22T17:14:32.573Z,34.80
2022-09-22T17:16:38.630Z,59.58
2022-09-22T17:18:40.316Z,77.93
2022-09-22T17:20:41.748Z,64.35
2022-09-22T17:22:43.293Z,53.03
2022-09-22T17:24:44.681Z,67.05
2022-09-22T17:26:48.002Z,47.45
2022-09-22T17:28:50.620Z,101.22
2022-09-22T17:30:57.520Z,115.40
2022-09-22T17:33:01.440Z,111.57
2022-09-22T17:35:02.955Z,61.35
2022-09-22T17:37:04.525Z,20.65
2022-09-22T17:39:06.949Z,27.50
2022-09-22T17:41:10.064Z,10.48
2022-09-22T17:43:11.563Z,19.30
2022-09-22T17:45:12.968Z,10.52
2022-09-22T17:47:33.275Z,13.85
2022-09-22T17:49:53.536Z,6.07
2022-09-22T17:52:13.706Z,6.72
2022-09-22T17:54:37.792Z,8.10
2022-09-22T17:56:39.263Z,20.13
2022-09-22T17:58:40.681Z,21.23
2022-09-22T18:00:42.194Z,35.85
2022-09-22T18:02:44.024Z,42.00
2022-09-22T18:04:46.106Z,78.95
2022-09-22T18:06:48.755Z,51.63
2022-09-22T18:08:50.368Z,40.90
2022-09-22T18:10:52.271Z,37.63
2022-09-22T18:12:53.816Z,36.35
2022-09-22T18:14:55.658Z,28.77
2022-09-22T18:17:00.852Z,25.20
2022-09-22T18:19:05.846Z,18.67
2022-09-22T18:21:07.340Z,23.63
2022-09-22T18:23:08.897Z,31.58
2022-09-22T18:25:10.559Z,49.33
2022-09-22T18:27:15.041Z,38.85
2022-09-22T18:29:17.238Z,125.50
2022-09-22T18:31:18.836Z,116.47
2022-09-22T18:33:20.636Z,55.67
2022-09-22T18:35:22.227Z,45.33
2022-09-22T18:37:24.781Z,33.47
2022-09-22T18:39:26.372Z,21.15
2022-09-22T18:41:28.689Z,18.98
2022-09-22T18:43:30.562Z,15.43
2022-09-22T18:45:34.403Z,15.10
2022-09-22T18:47:39.726Z,22.98
2022-09-22T18:49:41.256Z,20.38
2022-09-22T18:51:44.674Z,24.20
2022-09-22T18:53:49.117Z,36.90
2022-09-22T18:55:52.898Z,24.92
2022-09-22T18:57:56.587Z,15.63
2022-09-22T19:00:00.036Z,16.58
2022-09-22T19:02:01.797Z,20.98
2022-09-22T19:04:04.761Z,15.60
2022-09-22T19:06:06.495Z,10.70
2022-09-22T19:08:10.311Z,8.18
2022-09-22T19:10:13.008Z,45.88
2022-09-22T19:12:14.582Z,27.48
2022-09-22T19:14:17.830Z,19.20
2022-09-22T19:16:22.572Z,19.40
2022-09-22T19:18:25.493Z,30.25
2022-09-22T19:20:28.536Z,62.83
2022-09-22T19:22:32.150Z,27.88
2022-09-22T19:24:34.712Z,16.40
2022-09-22T19:26:42.281Z,13.90
2022-09-22T19:28:43.801Z,16.33
2022-09-22T19:30:45.374Z,25.65
2022-09-22T19:32:46.944Z,20.67
2022-09-22T19:34:52.624Z,20.95
2022-09-22T19:36:55.597Z,23.77
2022-09-22T19:38:57.100Z,30.33
2022-09-22T19:40:59.592Z,29.42
2022-09-22T19:43:02.970Z,19.90
2022-09-22T19:45:04.667Z,12.82
2022-09-22T19:47:06.223Z,15.18
2022-09-22T19:49:07.619Z,34.35
2022-09-22T19:51:09.021Z,13.90
2022-09-22T19:53:10.474Z,11.57
2022-09-22T19:55:11.940Z,13.63
2022-09-22T19:57:13.814Z,17.23
2022-09-22T19:59:16.782Z,20.25
2022-09-22T20:01:28.605Z,18.63
2022-09-22T20:03:30.033Z,23.52
2022-09-22T20:05:36.905Z,16.52
2022-09-22T20:07:38.580Z,15.95
2022-09-22T20:09:39.989Z,17.25
2022-09-22T20:11:42.871Z,17.73
2022-09-22T20:14:05.394Z,16.08
2022-09-22T20:16:06.893Z,28.02
2022-09-22T20:18:08.842Z,19.80
2022-09-22T20:20:10.417Z,20.38
2022-09-22T20:22:25.600Z,20.85
2022-09-22T20:24:27.143Z,51.17
2022-09-22T20:26:28.660Z,19.70
2022-09-22T20:28:30.123Z,19.10
2022-09-22T20:30:31.626Z,16.67
2022-09-22T20:32:33.098Z,17.65
2022-09-22T20:34:34.542Z,20.25
2022-09-22T20:36:37.232Z,17.73
2022-09-22T20:38:39.114Z,18.63
2022-09-22T20:40:40.594Z,17.58
2022-09-22T20:42:42.689Z,15.90
2022-09-22T20:44:44.368Z,17.33
2022-09-22T20:46:47.180Z,16.00
2022-09-22T20:48:48.837Z,15.63
2022-09-22T20:50:56.874Z,16.55
2022-09-22T20:52:58.316Z,15.48
2022-09-22T20:54:59.754Z,15.50
2022-09-22T20:57:01.242Z,16.00
2022-09-22T20:59:02.686Z,15.43
2022-09-22T21:01:05.234Z,15.13
2022-09-22T21:03:07.225Z,16.85
2022-09-22T21:05:08.907Z,16.23
2022-09-22T21:07:11.616Z,16.30
2022-09-22T21:09:31.554Z,15.55
2022-09-22T21:13:34.368Z,18.00
2022-09-22T21:15:36.197Z,17.23
2022-09-22T21:17:40.957Z,18.10
2022-09-22T21:19:46.207Z,18.27
2022-09-22T21:21:47.759Z,18.77
2022-09-22T21:23:49.543Z,19.58
2022-09-22T21:25:56.819Z,18.60
2022-09-22T21:27:58.546Z,19.15
2022-09-22T21:29:59.962Z,19.30
2022-09-22T21:32:01.875Z,19.17
2022-09-22T21:34:03.914Z,19.73
2022-09-22T21:36:09.545Z,19.70
2022-09-22T21:38:11.244Z,20.42
2022-09-22T21:40:12.764Z,21.27
2022-09-22T21:42:14.260Z,20.75
2022-09-22T21:44:15.715Z,22.75
2022-09-22T21:46:21.475Z,22.23
2022-09-22T21:48:22.984Z,21.42
2022-09-22T21:50:24.405Z,22.52
2022-09-22T21:52:25.800Z,22.38
2022-09-22T21:54:27.184Z,36.90
2022-09-22T21:56:30.160Z,27.17
2022-09-22T21:58:32.874Z,25.73
2022-09-22T22:00:51.292Z,23.73
2022-09-22T22:03:12.095Z,23.35
2022-09-22T22:05:14.852Z,24.35
2022-09-22T22:07:16.340Z,25.30
2022-09-22T22:09:19.247Z,25.60
2022-09-22T22:11:22.802Z,25.55
2022-09-22T22:13:24.192Z,25.58
2022-09-22T22:15:26.106Z,25.20
2022-09-22T22:17:27.515Z,26.48
2022-09-22T22:19:29.940Z,27.08
2022-09-22T22:21:32.098Z,31.45
2022-09-22T22:23:34.988Z,26.20
2022-09-22T22:25:37.253Z,26.58
2022-09-22T22:27:39.376Z,25.25
2022-09-22T22:29:41.083Z,26.60
2022-09-22T22:31:43.551Z,25.88
2022-09-22T22:33:45.239Z,25.75
2022-09-22T22:35:50.583Z,26.45
2022-09-22T22:37:51.979Z,26.45
2022-09-22T22:39:53.431Z,29.02
2022-09-22T22:41:55.296Z,29.90
2022-09-22T22:43:56.870Z,26.92
2022-09-22T22:45:58.513Z,26.35
2022-09-22T22:47:59.976Z,25.20
2022-09-22T22:50:01.428Z,27.45
2022-09-22T22:52:02.894Z,25.52
2022-09-22T22:54:05.055Z,25.58
2022-09-22T22:56:07.522Z,25.42
2022-09-22T22:58:09.559Z,26.42
2022-09-22T23:00:11.370Z,24.85
2022-09-22T23:02:12.750Z,25.65
2022-09-22T23:04:14.143Z,26.45
2022-09-22T23:06:16.684Z,26.52
2022-09-22T23:08:18.064Z,29.42
2022-09-22T23:10:20.189Z,29.27
2022-09-22T23:12:21.605Z,27.85
2022-09-22T23:14:23.139Z,26.52
2022-09-22T23:16:26.010Z,27.10
2022-09-22T23:18:27.479Z,29.83
2022-09-22T23:20:28.925Z,28.80
2022-09-22T23:22:30.702Z,28.58
2022-09-22T23:24:32.134Z,27.67
2022-09-22T23:26:33.686Z,27.98
2022-09-22T23:28:36.038Z,28.23
2022-09-22T23:30:37.461Z,27.75
2022-09-22T23:32:38.984Z,28.75
2022-09-22T23:34:41.254Z,28.52
2022-09-22T23:36:42.739Z,31.38
2022-09-22T23:38:44.302Z,39.67
2022-09-22T23:40:46.112Z,38.13
2022-09-22T23:42:47.994Z,32.65
2022-09-22T23:44:49.449Z,29.67
2022-09-22T23:46:50.880Z,28.50
2022-09-22T23:48:52.338Z,31.38
2022-09-22T23:50:54.312Z,30.95
2022-09-22T23:52:56.038Z,30.75
2022-09-22T23:54:57.648Z,30.55
2022-09-22T23:56:59.536Z,31.30
2022-09-22T23:59:00.925Z,32.13
